sensor_id;sensor_type;location;lat;lon;timestamp;P1;durP1;ratioP1;P2;durP2;ratioP2
41927;SDS011;27616;51.420;6.788;2023-04-09T00:01:48;43.10;;;24.77;;
41927;SDS011;27616;51.420;6.788;2023-04-09T00:04:13;45.37;;;24.90;;
41927;SDS011;27616;51.420;6.788;2023-04-09T00:06:39;43.07;;;23.90;;
41927;SDS011;27616;51.420;6.788;2023-04-09T00:09:05;43.07;;;24.33;;
41927;SDS011;27616;51.420;6.788;2023-04-09T00:11:31;46.90;;;25.00;;
41927;SDS011;27616;51.420;6.788;2023-04-09T00:13:57;45.67;;;24.37;;
41927;SDS011;27616;51.420;6.788;2023-04-09T00:16:23;45.67;;;25.37;;
41927;SDS011;27616;51.420;6.788;2023-04-09T00:18:49;44.30;;;24.40;;
41927;SDS011;27616;51.420;6.788;2023-04-09T00:21:15;44.90;;;23.90;;
41927;SDS011;27616;51.420;6.788;2023-04-09T00:23:41;43.63;;;24.13;;
41927;SDS011;27616;51.420;6.788;2023-04-09T00:26:07;46.77;;;24.00;;
41927;SDS011;27616;51.420;6.788;2023-04-09T00:28:34;49.07;;;26.03;;
41927;SDS011;27616;51.420;6.788;2023-04-09T00:31:00;47.17;;;23.87;;
41927;SDS011;27616;51.420;6.788;2023-04-09T00:33:26;46.00;;;24.37;;
41927;SDS011;27616;51.420;6.788;2023-04-09T00:35:52;45.67;;;23.97;;
41927;SDS011;27616;51.420;6.788;2023-04-09T00:38:18;46.37;;;24.27;;
41927;SDS011;27616;51.420;6.788;2023-04-09T00:40:47;47.87;;;24.97;;
41927;SDS011;27616;51.420;6.788;2023-04-09T00:43:14;51.27;;;25.03;;
41927;SDS011;27616;51.420;6.788;2023-04-09T00:45:40;48.00;;;24.53;;
41927;SDS011;27616;51.420;6.788;2023-04-09T00:48:06;48.80;;;25.73;;
41927;SDS011;27616;51.420;6.788;2023-04-09T00:50:32;49.67;;;25.63;;
41927;SDS011;27616;51.420;6.788;2023-04-09T00:52:58;46.87;;;24.43;;
41927;SDS011;27616;51.420;6.788;2023-04-09T00:55:25;45.30;;;25.20;;
41927;SDS011;27616;51.420;6.788;2023-04-09T00:57:51;48.20;;;24.33;;
41927;SDS011;27616;51.420;6.788;2023-04-09T01:00:17;48.07;;;24.70;;
41927;SDS011;27616;51.420;6.788;2023-04-09T01:02:42;46.17;;;24.00;;
41927;SDS011;27616;51.420;6.788;2023-04-09T01:05:09;47.07;;;25.30;;
41927;SDS011;27616;51.420;6.788;2023-04-09T01:07:47;48.50;;;25.13;;
41927;SDS011;27616;51.420;6.788;2023-04-09T01:11:23;46.97;;;24.27;;
41927;SDS011;27616;51.420;6.788;2023-04-09T01:15:59;45.33;;;24.83;;
41927;SDS011;27616;51.420;6.788;2023-04-09T01:18:35;50.50;;;25.48;;
41927;SDS011;27616;51.420;6.788;2023-04-09T01:21:09;52.03;;;26.77;;
41927;SDS011;27616;51.420;6.788;2023-04-09T01:23:44;51.50;;;27.23;;
41927;SDS011;27616;51.420;6.788;2023-04-09T01:29:23;49.77;;;24.63;;
41927;SDS011;27616;51.420;6.788;2023-04-09T01:31:51;47.93;;;24.80;;
41927;SDS011;27616;51.420;6.788;2023-04-09T01:34:19;49.77;;;26.13;;
41927;SDS011;27616;51.420;6.788;2023-04-09T01:36:48;51.13;;;25.87;;
41927;SDS011;27616;51.420;6.788;2023-04-09T01:39:17;51.83;;;26.67;;
41927;SDS011;27616;51.420;6.788;2023-04-09T01:41:43;52.47;;;27.30;;
41927;SDS011;27616;51.420;6.788;2023-04-09T01:44:09;51.53;;;25.70;;
41927;SDS011;27616;51.420;6.788;2023-04-09T01:46:36;52.23;;;27.13;;
41927;SDS011;27616;51.420;6.788;2023-04-09T01:49:04;51.63;;;25.57;;
41927;SDS011;27616;51.420;6.788;2023-04-09T01:51:31;53.60;;;27.97;;
41927;SDS011;27616;51.420;6.788;2023-04-09T01:53:57;52.37;;;27.67;;
41927;SDS011;27616;51.420;6.788;2023-04-09T01:56:24;56.60;;;27.70;;
41927;SDS011;27616;51.420;6.788;2023-04-09T01:58:50;51.30;;;27.70;;
41927;SDS011;27616;51.420;6.788;2023-04-09T02:01:30;54.73;;;27.07;;
41927;SDS011;27616;51.420;6.788;2023-04-09T02:03:59;49.17;;;25.20;;
41927;SDS011;27616;51.420;6.788;2023-04-09T02:06:38;57.72;;;28.73;;
41927;SDS011;27616;51.420;6.788;2023-04-09T02:09:08;52.87;;;26.67;;
41927;SDS011;27616;51.420;6.788;2023-04-09T02:11:39;50.63;;;27.50;;
41927;SDS011;27616;51.420;6.788;2023-04-09T02:14:06;54.10;;;27.53;;
41927;SDS011;27616;51.420;6.788;2023-04-09T02:16:35;55.03;;;27.03;;
41927;SDS011;27616;51.420;6.788;2023-04-09T02:19:01;57.87;;;27.27;;
41927;SDS011;27616;51.420;6.788;2023-04-09T02:21:28;54.97;;;28.30;;
41927;SDS011;27616;51.420;6.788;2023-04-09T02:23:54;60.93;;;28.30;;
41927;SDS011;27616;51.420;6.788;2023-04-09T02:26:20;51.63;;;27.30;;
41927;SDS011;27616;51.420;6.788;2023-04-09T02:28:46;55.30;;;28.53;;
41927;SDS011;27616;51.420;6.788;2023-04-09T02:31:12;55.00;;;28.30;;
41927;SDS011;27616;51.420;6.788;2023-04-09T02:33:38;54.87;;;27.43;;
41927;SDS011;27616;51.420;6.788;2023-04-09T02:36:04;55.60;;;28.20;;
41927;SDS011;27616;51.420;6.788;2023-04-09T02:38:30;57.90;;;28.67;;
41927;SDS011;27616;51.420;6.788;2023-04-09T02:40:56;58.83;;;29.00;;
41927;SDS011;27616;51.420;6.788;2023-04-09T02:43:23;58.97;;;28.57;;
41927;SDS011;27616;51.420;6.788;2023-04-09T02:45:48;58.53;;;28.50;;
41927;SDS011;27616;51.420;6.788;2023-04-09T02:48:14;59.83;;;28.60;;
41927;SDS011;27616;51.420;6.788;2023-04-09T02:50:42;55.73;;;27.87;;
41927;SDS011;27616;51.420;6.788;2023-04-09T02:53:08;60.10;;;28.43;;
41927;SDS011;27616;51.420;6.788;2023-04-09T02:55:34;57.53;;;29.03;;
41927;SDS011;27616;51.420;6.788;2023-04-09T02:57:59;63.40;;;29.80;;
41927;SDS011;27616;51.420;6.788;2023-04-09T03:00:25;60.53;;;28.87;;
41927;SDS011;27616;51.420;6.788;2023-04-09T03:02:52;53.27;;;26.80;;
41927;SDS011;27616;51.420;6.788;2023-04-09T03:05:17;59.97;;;29.27;;
41927;SDS011;27616;51.420;6.788;2023-04-09T03:07:43;63.53;;;29.23;;
41927;SDS011;27616;51.420;6.788;2023-04-09T03:10:09;62.70;;;29.83;;
41927;SDS011;27616;51.420;6.788;2023-04-09T03:12:35;55.63;;;27.63;;
41927;SDS011;27616;51.420;6.788;2023-04-09T03:15:00;61.70;;;29.37;;
41927;SDS011;27616;51.420;6.788;2023-04-09T03:17:26;59.60;;;28.63;;
41927;SDS011;27616;51.420;6.788;2023-04-09T03:19:53;60.47;;;29.60;;
41927;SDS011;27616;51.420;6.788;2023-04-09T03:22:19;59.80;;;29.00;;
41927;SDS011;27616;51.420;6.788;2023-04-09T03:24:50;60.80;;;28.87;;
41927;SDS011;27616;51.420;6.788;2023-04-09T03:27:16;62.73;;;29.83;;
41927;SDS011;27616;51.420;6.788;2023-04-09T03:29:43;64.20;;;30.47;;
41927;SDS011;27616;51.420;6.788;2023-04-09T03:32:09;61.10;;;30.07;;
41927;SDS011;27616;51.420;6.788;2023-04-09T03:34:35;64.13;;;31.10;;
41927;SDS011;27616;51.420;6.788;2023-04-09T03:37:00;64.53;;;30.73;;
41927;SDS011;27616;51.420;6.788;2023-04-09T03:39:29;65.90;;;32.00;;
41927;SDS011;27616;51.420;6.788;2023-04-09T03:41:56;64.70;;;31.27;;
41927;SDS011;27616;51.420;6.788;2023-04-09T03:44:26;67.03;;;33.23;;
41927;SDS011;27616;51.420;6.788;2023-04-09T03:47:17;64.60;;;30.37;;
41927;SDS011;27616;51.420;6.788;2023-04-09T03:49:43;68.67;;;31.57;;
41927;SDS011;27616;51.420;6.788;2023-04-09T03:52:22;64.60;;;32.25;;
41927;SDS011;27616;51.420;6.788;2023-04-09T03:55:07;62.87;;;31.10;;
41927;SDS011;27616;51.420;6.788;2023-04-09T03:57:34;65.10;;;32.60;;
41927;SDS011;27616;51.420;6.788;2023-04-09T04:00:00;69.97;;;33.93;;
41927;SDS011;27616;51.420;6.788;2023-04-09T04:02:32;64.50;;;31.77;;
41927;SDS011;27616;51.420;6.788;2023-04-09T04:05:02;65.83;;;33.17;;
41927;SDS011;27616;51.420;6.788;2023-04-09T04:07:33;65.50;;;32.17;;
41927;SDS011;27616;51.420;6.788;2023-04-09T04:10:05;62.90;;;33.20;;
41927;SDS011;27616;51.420;6.788;2023-04-09T04:12:32;71.53;;;33.67;;
41927;SDS011;27616;51.420;6.788;2023-04-09T04:15:09;75.87;;;35.17;;
41927;SDS011;27616;51.420;6.788;2023-04-09T04:17:49;76.40;;;35.30;;
41927;SDS011;27616;51.420;6.788;2023-04-09T04:20:37;68.23;;;32.50;;
41927;SDS011;27616;51.420;6.788;2023-04-09T04:23:11;79.33;;;36.10;;
41927;SDS011;27616;51.420;6.788;2023-04-09T04:25:44;78.23;;;36.20;;
41927;SDS011;27616;51.420;6.788;2023-04-09T04:28:14;80.33;;;36.07;;
41927;SDS011;27616;51.420;6.788;2023-04-09T04:30:41;86.73;;;37.77;;
41927;SDS011;27616;51.420;6.788;2023-04-09T04:33:07;72.50;;;35.17;;
41927;SDS011;27616;51.420;6.788;2023-04-09T04:35:42;76.83;;;36.43;;
41927;SDS011;27616;51.420;6.788;2023-04-09T04:38:22;80.53;;;36.03;;
41927;SDS011;27616;51.420;6.788;2023-04-09T04:40:48;79.87;;;38.17;;
41927;SDS011;27616;51.420;6.788;2023-04-09T04:43:15;76.47;;;34.50;;
41927;SDS011;27616;51.420;6.788;2023-04-09T04:45:42;75.77;;;35.37;;
41927;SDS011;27616;51.420;6.788;2023-04-09T04:48:10;73.00;;;34.63;;
41927;SDS011;27616;51.420;6.788;2023-04-09T04:50:36;75.03;;;35.17;;
41927;SDS011;27616;51.420;6.788;2023-04-09T04:53:05;74.63;;;34.58;;
41927;SDS011;27616;51.420;6.788;2023-04-09T04:55:40;74.70;;;36.03;;
41927;SDS011;27616;51.420;6.788;2023-04-09T05:00:42;72.97;;;33.17;;
41927;SDS011;27616;51.420;6.788;2023-04-09T05:03:08;76.83;;;34.50;;
41927;SDS011;27616;51.420;6.788;2023-04-09T05:05:52;70.37;;;34.10;;
41927;SDS011;27616;51.420;6.788;2023-04-09T05:08:18;73.50;;;33.10;;
41927;SDS011;27616;51.420;6.788;2023-04-09T05:10:47;71.28;;;34.58;;
41927;SDS011;27616;51.420;6.788;2023-04-09T05:13:13;69.77;;;33.40;;
41927;SDS011;27616;51.420;6.788;2023-04-09T05:15:40;73.13;;;34.00;;
41927;SDS011;27616;51.420;6.788;2023-04-09T05:18:07;72.60;;;33.87;;
41927;SDS011;27616;51.420;6.788;2023-04-09T05:20:33;73.10;;;33.93;;
41927;SDS011;27616;51.420;6.788;2023-04-09T05:23:05;74.00;;;33.67;;
41927;SDS011;27616;51.420;6.788;2023-04-09T05:25:38;70.87;;;33.83;;
41927;SDS011;27616;51.420;6.788;2023-04-09T05:28:07;67.75;;;32.45;;
41927;SDS011;27616;51.420;6.788;2023-04-09T05:30:35;69.97;;;32.40;;
41927;SDS011;27616;51.420;6.788;2023-04-09T05:33:02;71.30;;;32.50;;
41927;SDS011;27616;51.420;6.788;2023-04-09T05:35:29;68.83;;;32.03;;
41927;SDS011;27616;51.420;6.788;2023-04-09T05:37:55;64.93;;;31.90;;
41927;SDS011;27616;51.420;6.788;2023-04-09T05:40:21;72.33;;;34.07;;
41927;SDS011;27616;51.420;6.788;2023-04-09T05:42:48;63.20;;;31.97;;
41927;SDS011;27616;51.420;6.788;2023-04-09T05:45:25;65.87;;;31.77;;
41927;SDS011;27616;51.420;6.788;2023-04-09T05:47:53;63.97;;;31.40;;
41927;SDS011;27616;51.420;6.788;2023-04-09T05:50:21;64.17;;;30.53;;
41927;SDS011;27616;51.420;6.788;2023-04-09T05:52:50;57.55;;;29.60;;
41927;SDS011;27616;51.420;6.788;2023-04-09T05:55:16;53.10;;;28.43;;
41927;SDS011;27616;51.420;6.788;2023-04-09T05:57:46;50.80;;;27.40;;
41927;SDS011;27616;51.420;6.788;2023-04-09T06:00:12;48.53;;;26.97;;
41927;SDS011;27616;51.420;6.788;2023-04-09T06:02:41;53.70;;;28.55;;
41927;SDS011;27616;51.420;6.788;2023-04-09T06:05:07;53.57;;;27.63;;
41927;SDS011;27616;51.420;6.788;2023-04-09T06:07:33;54.60;;;27.80;;
41927;SDS011;27616;51.420;6.788;2023-04-09T06:09:59;49.30;;;26.33;;
41927;SDS011;27616;51.420;6.788;2023-04-09T06:12:26;48.30;;;25.43;;
41927;SDS011;27616;51.420;6.788;2023-04-09T06:14:51;52.93;;;26.93;;
41927;SDS011;27616;51.420;6.788;2023-04-09T06:17:17;49.17;;;25.60;;
41927;SDS011;27616;51.420;6.788;2023-04-09T06:19:43;50.53;;;27.07;;
41927;SDS011;27616;51.420;6.788;2023-04-09T06:22:09;47.43;;;25.77;;
41927;SDS011;27616;51.420;6.788;2023-04-09T06:24:35;49.57;;;25.23;;
41927;SDS011;27616;51.420;6.788;2023-04-09T06:27:00;47.07;;;25.83;;
41927;SDS011;27616;51.420;6.788;2023-04-09T06:29:26;43.50;;;24.50;;
41927;SDS011;27616;51.420;6.788;2023-04-09T06:31:52;48.00;;;25.67;;
41927;SDS011;27616;51.420;6.788;2023-04-09T06:34:18;44.20;;;25.17;;
41927;SDS011;27616;51.420;6.788;2023-04-09T06:36:44;45.87;;;25.27;;
41927;SDS011;27616;51.420;6.788;2023-04-09T06:39:09;42.47;;;24.57;;
41927;SDS011;27616;51.420;6.788;2023-04-09T06:41:35;41.33;;;24.20;;
41927;SDS011;27616;51.420;6.788;2023-04-09T06:44:10;43.10;;;24.77;;
41927;SDS011;27616;51.420;6.788;2023-04-09T06:46:35;41.03;;;23.17;;
41927;SDS011;27616;51.420;6.788;2023-04-09T06:49:01;40.00;;;23.67;;
41927;SDS011;27616;51.420;6.788;2023-04-09T06:51:27;36.53;;;21.90;;
41927;SDS011;27616;51.420;6.788;2023-04-09T06:53:52;36.93;;;22.43;;
41927;SDS011;27616;51.420;6.788;2023-04-09T06:56:18;39.67;;;22.47;;
41927;SDS011;27616;51.420;6.788;2023-04-09T06:58:44;38.63;;;22.70;;
41927;SDS011;27616;51.420;6.788;2023-04-09T07:01:10;35.60;;;22.93;;
41927;SDS011;27616;51.420;6.788;2023-04-09T07:03:36;36.00;;;21.20;;
41927;SDS011;27616;51.420;6.788;2023-04-09T07:06:02;35.67;;;21.93;;
41927;SDS011;27616;51.420;6.788;2023-04-09T07:08:28;35.47;;;21.63;;
41927;SDS011;27616;51.420;6.788;2023-04-09T07:10:54;35.47;;;21.53;;
41927;SDS011;27616;51.420;6.788;2023-04-09T07:13:20;35.53;;;21.50;;
41927;SDS011;27616;51.420;6.788;2023-04-09T07:15:46;32.87;;;20.33;;
41927;SDS011;27616;51.420;6.788;2023-04-09T07:18:12;34.20;;;19.23;;
41927;SDS011;27616;51.420;6.788;2023-04-09T07:20:38;30.93;;;20.10;;
41927;SDS011;27616;51.420;6.788;2023-04-09T07:23:03;29.80;;;18.73;;
41927;SDS011;27616;51.420;6.788;2023-04-09T07:25:29;29.90;;;18.27;;
41927;SDS011;27616;51.420;6.788;2023-04-09T07:27:55;34.60;;;21.20;;
41927;SDS011;27616;51.420;6.788;2023-04-09T07:30:21;25.95;;;16.77;;
41927;SDS011;27616;51.420;6.788;2023-04-09T07:32:47;25.77;;;16.73;;
41927;SDS011;27616;51.420;6.788;2023-04-09T07:35:13;23.33;;;15.82;;
41927;SDS011;27616;51.420;6.788;2023-04-09T07:37:39;27.08;;;17.33;;
41927;SDS011;27616;51.420;6.788;2023-04-09T07:40:05;20.00;;;13.52;;
41927;SDS011;27616;51.420;6.788;2023-04-09T07:42:32;24.27;;;12.50;;
41927;SDS011;27616;51.420;6.788;2023-04-09T07:44:58;15.65;;;10.75;;
41927;SDS011;27616;51.420;6.788;2023-04-09T07:47:24;17.83;;;11.55;;
41927;SDS011;27616;51.420;6.788;2023-04-09T07:49:51;16.05;;;11.00;;
41927;SDS011;27616;51.420;6.788;2023-04-09T07:52:16;16.42;;;11.02;;
41927;SDS011;27616;51.420;6.788;2023-04-09T07:54:43;14.00;;;8.50;;
41927;SDS011;27616;51.420;6.788;2023-04-09T07:57:09;13.90;;;9.18;;
41927;SDS011;27616;51.420;6.788;2023-04-09T07:59:35;15.63;;;10.30;;
41927;SDS011;27616;51.420;6.788;2023-04-09T08:02:00;13.63;;;9.32;;
41927;SDS011;27616;51.420;6.788;2023-04-09T08:04:26;14.77;;;10.18;;
41927;SDS011;27616;51.420;6.788;2023-04-09T08:06:52;14.52;;;9.93;;
41927;SDS011;27616;51.420;6.788;2023-04-09T08:09:18;14.98;;;9.85;;
41927;SDS011;27616;51.420;6.788;2023-04-09T08:11:45;15.15;;;10.10;;
41927;SDS011;27616;51.420;6.788;2023-04-09T08:14:12;14.95;;;9.57;;
41927;SDS011;27616;51.420;6.788;2023-04-09T08:16:42;13.25;;;8.52;;
41927;SDS011;27616;51.420;6.788;2023-04-09T08:19:09;10.52;;;7.80;;
41927;SDS011;27616;51.420;6.788;2023-04-09T08:21:36;10.68;;;7.38;;
41927;SDS011;27616;51.420;6.788;2023-04-09T08:24:03;11.30;;;7.63;;
41927;SDS011;27616;51.420;6.788;2023-04-09T08:26:30;10.80;;;6.85;;
41927;SDS011;27616;51.420;6.788;2023-04-09T08:28:55;11.90;;;7.63;;
41927;SDS011;27616;51.420;6.788;2023-04-09T08:31:22;11.50;;;7.50;;
41927;SDS011;27616;51.420;6.788;2023-04-09T08:33:48;11.32;;;7.53;;
41927;SDS011;27616;51.420;6.788;2023-04-09T08:36:14;12.98;;;7.22;;
41927;SDS011;27616;51.420;6.788;2023-04-09T08:38:40;11.45;;;7.40;;
41927;SDS011;27616;51.420;6.788;2023-04-09T08:41:06;11.68;;;7.20;;
41927;SDS011;27616;51.420;6.788;2023-04-09T08:43:32;11.77;;;6.75;;
41927;SDS011;27616;51.420;6.788;2023-04-09T08:46:00;10.48;;;6.55;;
41927;SDS011;27616;51.420;6.788;2023-04-09T08:48:27;10.90;;;6.50;;
41927;SDS011;27616;51.420;6.788;2023-04-09T08:50:54;9.10;;;5.60;;
41927;SDS011;27616;51.420;6.788;2023-04-09T08:53:20;9.55;;;6.18;;
41927;SDS011;27616;51.420;6.788;2023-04-09T08:55:47;8.65;;;5.78;;
41927;SDS011;27616;51.420;6.788;2023-04-09T08:58:12;9.20;;;5.75;;
41927;SDS011;27616;51.420;6.788;2023-04-09T09:00:38;10.32;;;5.88;;
41927;SDS011;27616;51.420;6.788;2023-04-09T09:03:06;8.43;;;5.32;;
41927;SDS011;27616;51.420;6.788;2023-04-09T09:05:37;9.90;;;6.55;;
41927;SDS011;27616;51.420;6.788;2023-04-09T09:08:07;11.63;;;6.28;;
41927;SDS011;27616;51.420;6.788;2023-04-09T09:10:43;12.02;;;6.47;;
41927;SDS011;27616;51.420;6.788;2023-04-09T09:13:26;9.02;;;5.80;;
41927;SDS011;27616;51.420;6.788;2023-04-09T09:15:53;9.35;;;6.50;;
41927;SDS011;27616;51.420;6.788;2023-04-09T09:18:39;9.57;;;5.97;;
41927;SDS011;27616;51.420;6.788;2023-04-09T09:23:35;10.38;;;6.18;;
41927;SDS011;27616;51.420;6.788;2023-04-09T09:26:10;9.27;;;5.80;;
41927;SDS011;27616;51.420;6.788;2023-04-09T09:28:40;9.57;;;6.10;;
41927;SDS011;27616;51.420;6.788;2023-04-09T09:31:07;6.95;;;4.65;;
41927;SDS011;27616;51.420;6.788;2023-04-09T09:33:33;8.70;;;5.07;;
41927;SDS011;27616;51.420;6.788;2023-04-09T09:36:00;8.02;;;5.47;;
41927;SDS011;27616;51.420;6.788;2023-04-09T09:38:28;8.18;;;5.18;;
41927;SDS011;27616;51.420;6.788;2023-04-09T09:40:54;10.40;;;7.15;;
41927;SDS011;27616;51.420;6.788;2023-04-09T09:43:20;8.15;;;5.53;;
41927;SDS011;27616;51.420;6.788;2023-04-09T09:45:46;7.93;;;5.13;;
41927;SDS011;27616;51.420;6.788;2023-04-09T09:48:12;10.90;;;6.60;;
41927;SDS011;27616;51.420;6.788;2023-04-09T09:50:39;8.90;;;5.13;;
41927;SDS011;27616;51.420;6.788;2023-04-09T09:53:07;8.23;;;5.30;;
41927;SDS011;27616;51.420;6.788;2023-04-09T09:55:39;7.90;;;5.30;;
41927;SDS011;27616;51.420;6.788;2023-04-09T09:58:11;8.20;;;5.10;;
41927;SDS011;27616;51.420;6.788;2023-04-09T10:00:40;9.65;;;5.90;;
41927;SDS011;27616;51.420;6.788;2023-04-09T10:03:18;9.35;;;6.22;;
41927;SDS011;27616;51.420;6.788;2023-04-09T10:05:47;8.23;;;5.45;;
41927;SDS011;27616;51.420;6.788;2023-04-09T10:08:14;9.80;;;6.15;;
41927;SDS011;27616;51.420;6.788;2023-04-09T10:10:40;8.07;;;5.05;;
41927;SDS011;27616;51.420;6.788;2023-04-09T10:13:12;7.80;;;5.43;;
41927;SDS011;27616;51.420;6.788;2023-04-09T10:15:45;8.00;;;5.63;;
41927;SDS011;27616;51.420;6.788;2023-04-09T10:18:13;8.63;;;5.32;;
41927;SDS011;27616;51.420;6.788;2023-04-09T10:20:45;8.18;;;5.93;;
41927;SDS011;27616;51.420;6.788;2023-04-09T10:23:23;8.27;;;5.57;;
41927;SDS011;27616;51.420;6.788;2023-04-09T10:25:56;7.90;;;5.20;;
41927;SDS011;27616;51.420;6.788;2023-04-09T10:28:22;8.35;;;5.32;;
41927;SDS011;27616;51.420;6.788;2023-04-09T10:30:48;7.10;;;5.20;;
41927;SDS011;27616;51.420;6.788;2023-04-09T10:33:15;7.20;;;5.10;;
41927;SDS011;27616;51.420;6.788;2023-04-09T10:35:46;6.60;;;5.07;;
41927;SDS011;27616;51.420;6.788;2023-04-09T10:38:13;7.97;;;5.57;;
41927;SDS011;27616;51.420;6.788;2023-04-09T10:41:05;6.88;;;5.00;;
41927;SDS011;27616;51.420;6.788;2023-04-09T10:43:39;7.65;;;5.53;;
41927;SDS011;27616;51.420;6.788;2023-04-09T10:46:06;6.60;;;5.13;;
41927;SDS011;27616;51.420;6.788;2023-04-09T10:49:06;7.30;;;5.50;;
41927;SDS011;27616;51.420;6.788;2023-04-09T10:51:36;7.80;;;5.43;;
41927;SDS011;27616;51.420;6.788;2023-04-09T10:54:34;7.10;;;5.45;;
41927;SDS011;27616;51.420;6.788;2023-04-09T10:59:39;6.95;;;4.82;;
41927;SDS011;27616;51.420;6.788;2023-04-09T11:02:07;7.05;;;4.95;;
41927;SDS011;27616;51.420;6.788;2023-04-09T11:07:26;6.80;;;4.93;;
41927;SDS011;27616;51.420;6.788;2023-04-09T11:09:53;6.68;;;4.90;;
41927;SDS011;27616;51.420;6.788;2023-04-09T11:12:19;6.50;;;4.82;;
41927;SDS011;27616;51.420;6.788;2023-04-09T11:14:45;7.55;;;5.28;;
41927;SDS011;27616;51.420;6.788;2023-04-09T11:17:11;6.70;;;5.15;;
41927;SDS011;27616;51.420;6.788;2023-04-09T11:19:37;7.38;;;4.82;;
41927;SDS011;27616;51.420;6.788;2023-04-09T11:22:03;6.57;;;4.95;;
41927;SDS011;27616;51.420;6.788;2023-04-09T11:24:43;6.93;;;5.07;;
41927;SDS011;27616;51.420;6.788;2023-04-09T11:27:10;7.07;;;4.95;;
41927;SDS011;27616;51.420;6.788;2023-04-09T11:29:39;6.85;;;4.63;;
41927;SDS011;27616;51.420;6.788;2023-04-09T11:32:06;7.15;;;4.70;;
41927;SDS011;27616;51.420;6.788;2023-04-09T11:34:32;7.10;;;5.22;;
41927;SDS011;27616;51.420;6.788;2023-04-09T11:36:58;6.35;;;4.93;;
41927;SDS011;27616;51.420;6.788;2023-04-09T11:39:26;6.97;;;4.75;;
41927;SDS011;27616;51.420;6.788;2023-04-09T11:41:52;7.45;;;4.80;;
41927;SDS011;27616;51.420;6.788;2023-04-09T11:44:19;8.55;;;5.40;;
41927;SDS011;27616;51.420;6.788;2023-04-09T11:46:45;7.45;;;4.90;;
41927;SDS011;27616;51.420;6.788;2023-04-09T11:49:13;7.50;;;5.20;;
41927;SDS011;27616;51.420;6.788;2023-04-09T11:51:39;7.15;;;4.80;;
41927;SDS011;27616;51.420;6.788;2023-04-09T11:54:05;8.57;;;5.50;;
41927;SDS011;27616;51.420;6.788;2023-04-09T11:56:32;9.45;;;5.45;;
41927;SDS011;27616;51.420;6.788;2023-04-09T11:59:00;8.00;;;5.00;;
41927;SDS011;27616;51.420;6.788;2023-04-09T12:01:29;10.05;;;5.63;;
41927;SDS011;27616;51.420;6.788;2023-04-09T12:03:56;7.03;;;5.25;;
41927;SDS011;27616;51.420;6.788;2023-04-09T12:06:23;8.95;;;5.13;;
41927;SDS011;27616;51.420;6.788;2023-04-09T12:08:57;15.38;;;10.75;;
41927;SDS011;27616;51.420;6.788;2023-04-09T12:11:27;10.35;;;6.47;;
41927;SDS011;27616;51.420;6.788;2023-04-09T12:14:00;8.15;;;5.97;;
41927;SDS011;27616;51.420;6.788;2023-04-09T12:16:30;8.30;;;5.72;;
41927;SDS011;27616;51.420;6.788;2023-04-09T12:19:04;7.28;;;5.40;;
41927;SDS011;27616;51.420;6.788;2023-04-09T12:24:18;8.63;;;5.78;;
41927;SDS011;27616;51.420;6.788;2023-04-09T12:26:46;7.70;;;4.80;;
41927;SDS011;27616;51.420;6.788;2023-04-09T12:29:12;8.20;;;5.63;;
41927;SDS011;27616;51.420;6.788;2023-04-09T12:31:40;7.63;;;5.38;;
41927;SDS011;27616;51.420;6.788;2023-04-09T12:34:06;6.88;;;5.35;;
41927;SDS011;27616;51.420;6.788;2023-04-09T12:36:32;7.93;;;5.57;;
41927;SDS011;27616;51.420;6.788;2023-04-09T12:38:58;7.68;;;5.10;;
41927;SDS011;27616;51.420;6.788;2023-04-09T12:41:23;6.50;;;4.95;;
41927;SDS011;27616;51.420;6.788;2023-04-09T12:43:49;8.20;;;5.32;;
41927;SDS011;27616;51.420;6.788;2023-04-09T12:46:16;7.25;;;5.18;;
41927;SDS011;27616;51.420;6.788;2023-04-09T12:48:43;8.13;;;5.13;;
41927;SDS011;27616;51.420;6.788;2023-04-09T12:51:09;7.32;;;5.60;;
41927;SDS011;27616;51.420;6.788;2023-04-09T12:53:36;7.90;;;5.53;;
41927;SDS011;27616;51.420;6.788;2023-04-09T12:56:01;8.23;;;5.50;;
41927;SDS011;27616;51.420;6.788;2023-04-09T12:58:27;7.63;;;4.95;;
41927;SDS011;27616;51.420;6.788;2023-04-09T13:00:53;8.15;;;5.75;;
41927;SDS011;27616;51.420;6.788;2023-04-09T13:03:21;8.63;;;5.57;;
41927;SDS011;27616;51.420;6.788;2023-04-09T13:05:47;9.23;;;5.32;;
41927;SDS011;27616;51.420;6.788;2023-04-09T13:08:13;7.72;;;5.60;;
41927;SDS011;27616;51.420;6.788;2023-04-09T13:10:39;8.30;;;6.13;;
41927;SDS011;27616;51.420;6.788;2023-04-09T13:13:05;10.32;;;6.38;;
41927;SDS011;27616;51.420;6.788;2023-04-09T13:15:36;9.63;;;5.60;;
41927;SDS011;27616;51.420;6.788;2023-04-09T13:18:07;7.55;;;4.97;;
41927;SDS011;27616;51.420;6.788;2023-04-09T13:20:33;8.13;;;5.60;;
41927;SDS011;27616;51.420;6.788;2023-04-09T13:22:59;10.38;;;6.53;;
41927;SDS011;27616;51.420;6.788;2023-04-09T13:25:26;12.82;;;8.75;;
41927;SDS011;27616;51.420;6.788;2023-04-09T13:27:52;7.93;;;5.38;;
41927;SDS011;27616;51.420;6.788;2023-04-09T13:30:17;7.13;;;5.13;;
41927;SDS011;27616;51.420;6.788;2023-04-09T13:32:43;8.30;;;5.50;;
41927;SDS011;27616;51.420;6.788;2023-04-09T13:35:09;8.75;;;5.32;;
41927;SDS011;27616;51.420;6.788;2023-04-09T13:37:35;8.20;;;5.10;;
41927;SDS011;27616;51.420;6.788;2023-04-09T13:40:00;8.02;;;5.68;;
41927;SDS011;27616;51.420;6.788;2023-04-09T13:42:26;8.45;;;5.60;;
41927;SDS011;27616;51.420;6.788;2023-04-09T13:44:52;8.35;;;5.82;;
41927;SDS011;27616;51.420;6.788;2023-04-09T13:47:19;8.38;;;5.50;;
41927;SDS011;27616;51.420;6.788;2023-04-09T13:49:45;8.45;;;5.80;;
41927;SDS011;27616;51.420;6.788;2023-04-09T13:52:11;9.27;;;6.07;;
41927;SDS011;27616;51.420;6.788;2023-04-09T13:54:38;7.43;;;5.43;;
41927;SDS011;27616;51.420;6.788;2023-04-09T13:57:03;8.07;;;5.72;;
41927;SDS011;27616;51.420;6.788;2023-04-09T13:59:29;8.68;;;5.72;;
41927;SDS011;27616;51.420;6.788;2023-04-09T14:01:55;7.57;;;5.45;;
41927;SDS011;27616;51.420;6.788;2023-04-09T14:04:20;8.60;;;6.20;;
41927;SDS011;27616;51.420;6.788;2023-04-09T14:06:46;8.45;;;5.85;;
41927;SDS011;27616;51.420;6.788;2023-04-09T14:09:13;9.35;;;5.70;;
41927;SDS011;27616;51.420;6.788;2023-04-09T14:11:39;9.00;;;5.75;;
41927;SDS011;27616;51.420;6.788;2023-04-09T14:14:04;7.32;;;5.38;;
41927;SDS011;27616;51.420;6.788;2023-04-09T14:16:30;9.15;;;6.00;;
41927;SDS011;27616;51.420;6.788;2023-04-09T14:18:56;10.60;;;6.43;;
41927;SDS011;27616;51.420;6.788;2023-04-09T14:21:22;7.78;;;5.38;;
41927;SDS011;27616;51.420;6.788;2023-04-09T14:23:48;9.55;;;6.32;;
41927;SDS011;27616;51.420;6.788;2023-04-09T14:26:14;9.20;;;6.38;;
41927;SDS011;27616;51.420;6.788;2023-04-09T14:28:43;8.38;;;5.60;;
41927;SDS011;27616;51.420;6.788;2023-04-09T14:31:11;9.30;;;6.50;;
41927;SDS011;27616;51.420;6.788;2023-04-09T14:33:38;7.57;;;4.40;;
41927;SDS011;27616;51.420;6.788;2023-04-09T14:36:05;11.35;;;6.57;;
41927;SDS011;27616;51.420;6.788;2023-04-09T14:38:31;12.93;;;8.63;;
41927;SDS011;27616;51.420;6.788;2023-04-09T14:40:58;12.77;;;7.82;;
41927;SDS011;27616;51.420;6.788;2023-04-09T14:43:23;7.90;;;4.90;;
41927;SDS011;27616;51.420;6.788;2023-04-09T14:45:49;7.25;;;4.90;;
41927;SDS011;27616;51.420;6.788;2023-04-09T14:48:16;8.88;;;5.55;;
41927;SDS011;27616;51.420;6.788;2023-04-09T14:50:42;9.63;;;5.50;;
41927;SDS011;27616;51.420;6.788;2023-04-09T14:53:08;5.55;;;3.60;;
41927;SDS011;27616;51.420;6.788;2023-04-09T14:55:34;7.35;;;4.78;;
41927;SDS011;27616;51.420;6.788;2023-04-09T14:58:00;7.00;;;5.15;;